Change the Weather History Date:

Wednesday, March 13, 2013

  Actual Average Record
Temperature  
Mean Temperature 18 °F -  
Max Temperature 26 °F 42 °F 73 °F (2012)
Min Temperature 10 °F 23 °F -8 °F (1975)
Degree Days  
Heating Degree Days 47    
Moisture  
Dew Point 13 °F    
Average Humidity 76    
Maximum Humidity 86    
Minimum Humidity 68    
Precipitation  
Precipitation 0.00 in - - ()
Sea Level Pressure  
Sea Level Pressure 30.34 in    
Wind  
Wind Speed 5 mph (West)    
Max Wind Speed 9 mph    
Max Gust Speed -    
Visibility 10 miles    
Events      
Averages and records for this station are not official NWS values.
T = Trace of Precipitation, MM = Missing Value Source: NWS Daily Summary

Daily Weather History Graph

Daily Weather History Graph

Search for Another Location

Airport or City:

Trip Planner

Search our weather history database for the weather conditions in past years. The results will help you decide how hot, cold, wet, or windy it might be!

Date:

Astronomy

Mar. 13, 2013 Rise Set
Actual Time 7:31 AM CDT 7:21 PM CDT
Civil Twilight 7:03 AM CDT 7:49 PM CDT
Nautical Twilight 6:31 AM CDT 8:22 PM CDT
Astronomical Twilight 5:57 AM CDT 8:55 PM CDT
Moon 8:08 AM CDT (3/13) 9:42 PM CDT (3/13)
Length of Visible Light 12h 45m
Length of Day
11h 49m
Waxing Crescent, 4% of the Moon is Illuminated
Mar 13
Waxing Crescent
Mar 19
First Quarter
Mar 27
Full
Apr 2
Last Quarter
Apr 10
New

Hourly Weather History & Observations

Time (CDT) Temp. Windchill Dew Point Humidity Pressure Visibility Wind Dir Wind Speed Gust Speed Precip Events Conditions
12:55 AM 19.4 °F 10.4 °F 12.2 °F 74% 30.25 in 10.0 mi NNW 6.9 mph - N/A   Clear
1:15 AM 17.6 °F 10.7 °F 10.4 °F 73% 30.25 in 10.0 mi NNW 4.6 mph - N/A   Clear
1:35 AM 17.6 °F 9.3 °F 10.4 °F 73% 30.26 in 10.0 mi NNW 5.8 mph - N/A   Clear
1:55 AM 17.6 °F 12.3 °F 10.4 °F 73% 30.27 in 10.0 mi NNW 3.5 mph - N/A   Clear
2:15 AM 17.6 °F 12.3 °F 10.4 °F 73% 30.27 in 10.0 mi NW 3.5 mph - N/A   Clear
2:35 AM 15.8 °F 8.6 °F 8.6 °F 73% 30.27 in 10.0 mi NW 4.6 mph - N/A   Clear
2:55 AM 15.8 °F - 8.6 °F 73% 30.28 in 10.0 mi Calm Calm - N/A   Clear
3:15 AM 14.0 °F 8.2 °F 8.6 °F 79% 30.29 in 10.0 mi NW 3.5 mph - N/A   Clear
3:55 AM 14.0 °F 8.2 °F 8.6 °F 79% 30.30 in 10.0 mi NW 3.5 mph - N/A   Clear
4:15 AM 14.0 °F 8.2 °F 8.6 °F 79% 30.30 in 10.0 mi NNW 3.5 mph - N/A   Clear
4:35 AM 14.0 °F 6.5 °F 8.6 °F 79% 30.30 in 10.0 mi NW 4.6 mph - N/A   Clear
4:55 AM 12.2 °F - 8.6 °F 85% 30.31 in 10.0 mi Calm Calm - N/A   Clear
5:15 AM 12.2 °F - 8.6 °F 85% 30.32 in 10.0 mi Calm Calm - N/A   Clear
5:35 AM 14.0 °F - 8.6 °F 79% 30.33 in 10.0 mi Calm Calm - N/A   Clear
5:55 AM 14.0 °F 5.1 °F 8.6 °F 79% 30.34 in 10.0 mi NNW 5.8 mph - N/A   Clear
6:15 AM 12.2 °F 6.1 °F 8.6 °F 85% 30.34 in 10.0 mi NW 3.5 mph - N/A   Clear
6:35 AM 12.2 °F 4.3 °F 6.8 °F 79% 30.34 in 10.0 mi NW 4.6 mph - N/A   Clear
6:55 AM 12.2 °F 6.1 °F 6.8 °F 79% 30.34 in 10.0 mi WNW 3.5 mph - N/A   Clear
7:15 AM 12.2 °F 6.1 °F 6.8 °F 79% 30.34 in 10.0 mi North 3.5 mph - N/A   Clear
7:35 AM 12.2 °F 4.3 °F 6.8 °F 79% 30.35 in 10.0 mi NW 4.6 mph - N/A   Clear
7:55 AM 10.4 °F 4.0 °F 6.8 °F 85% 30.36 in 10.0 mi NNW 3.5 mph - N/A   Clear
8:15 AM 10.4 °F 4.0 °F 6.8 °F 85% 30.36 in 10.0 mi NW 3.5 mph - N/A   Clear
8:35 AM 12.2 °F 4.3 °F 8.6 °F 85% 30.37 in 10.0 mi NW 4.6 mph - N/A   Clear
8:55 AM 14.0 °F 8.2 °F 8.6 °F 79% 30.37 in 10.0 mi NW 3.5 mph - N/A   Clear
9:15 AM 15.8 °F 10.2 °F 8.6 °F 73% 30.38 in 10.0 mi NNW 3.5 mph - N/A   Clear
9:35 AM 15.8 °F 8.6 °F 10.4 °F 79% 30.39 in 10.0 mi NNW 4.6 mph - N/A   Clear
9:55 AM 17.6 °F 10.7 °F 10.4 °F 73% 30.40 in 10.0 mi WNW 4.6 mph - N/A   Clear
10:15 AM 17.6 °F 10.7 °F 12.2 °F 79% 30.41 in 10.0 mi NW 4.6 mph - N/A   Clear
10:35 AM 19.4 °F 10.4 °F 12.2 °F 74% 30.41 in 10.0 mi NW 6.9 mph - N/A   Clear
10:55 AM 19.4 °F 10.4 °F 12.2 °F 74% 30.41 in 10.0 mi NW 6.9 mph - N/A   Clear
11:15 AM 21.2 °F 12.6 °F 12.2 °F 68% 30.42 in 10.0 mi NW 6.9 mph - N/A   Clear
11:35 AM 21.2 °F 12.6 °F 12.2 °F 68% 30.42 in 10.0 mi NW 6.9 mph - N/A   Clear
11:55 AM 21.2 °F 12.6 °F 14.0 °F 74% 30.42 in 10.0 mi WNW 6.9 mph - N/A   Clear
12:15 PM 21.2 °F 13.6 °F 14.0 °F 74% 30.42 in 10.0 mi West 5.8 mph - N/A   Clear
12:35 PM 21.2 °F 11.7 °F 14.0 °F 74% 30.41 in 10.0 mi WNW 8.1 mph - N/A   Clear
12:55 PM 23.0 °F 14.7 °F 14.0 °F 68% 30.42 in 10.0 mi NNW 6.9 mph - N/A   Clear
1:15 PM 23.0 °F 13.9 °F 15.8 °F 74% 30.42 in 10.0 mi West 8.1 mph - N/A   Clear
1:35 PM 24.8 °F 16.9 °F 15.8 °F 69% 30.42 in 10.0 mi West 6.9 mph - N/A   Clear
1:55 PM 24.8 °F 20.5 °F 15.8 °F 69% 30.40 in 10.0 mi WNW 3.5 mph - N/A   Clear
2:15 PM 24.8 °F - 15.8 °F 69% 30.40 in 10.0 mi Calm Calm - N/A   Clear
2:35 PM 26.6 °F 21.2 °F 17.6 °F 69% 30.40 in 10.0 mi WSW 4.6 mph - N/A   Clear
2:55 PM 26.6 °F 19.1 °F 17.6 °F 69% 30.39 in 10.0 mi SW 6.9 mph - N/A   Clear
3:15 PM 26.6 °F 18.2 °F 17.6 °F 69% 30.39 in 10.0 mi SW 8.1 mph - N/A   Clear
3:35 PM 26.6 °F 17.5 °F 17.6 °F 69% 30.38 in 10.0 mi SW 9.2 mph - N/A   Clear
3:55 PM 26.6 °F 17.5 °F 17.6 °F 69% 30.39 in 10.0 mi SW 9.2 mph - N/A   Clear
4:15 PM 26.6 °F 17.5 °F 17.6 °F 69% 30.38 in 10.0 mi WSW 9.2 mph - N/A   Clear
4:35 PM 26.6 °F 18.2 °F 17.6 °F 69% 30.37 in 10.0 mi WSW 8.1 mph - N/A   Clear
4:55 PM 26.6 °F 19.1 °F 17.6 °F 69% 30.37 in 10.0 mi WSW 6.9 mph - N/A   Clear
5:15 PM 26.6 °F 18.2 °F 17.6 °F 69% 30.37 in 10.0 mi WSW 8.1 mph - N/A   Clear
5:35 PM 26.6 °F 20.0 °F 17.6 °F 69% 30.35 in 10.0 mi SSW 5.8 mph - N/A   Clear
5:55 PM 26.6 °F 19.1 °F 19.4 °F 74% 30.34 in 10.0 mi South 6.9 mph - N/A   Clear
6:15 PM 26.6 °F 19.1 °F 17.6 °F 69% 30.32 in 10.0 mi South 6.9 mph - N/A   Clear
6:35 PM 24.8 °F 16.9 °F 17.6 °F 74% 30.33 in 10.0 mi SSW 6.9 mph - N/A   Clear
6:55 PM 24.8 °F 16.1 °F 17.6 °F 74% 30.33 in 10.0 mi South 8.1 mph - N/A   Clear
7:15 PM 23.0 °F 15.8 °F 15.8 °F 74% 30.32 in 10.0 mi South 5.8 mph - N/A   Clear
7:35 PM 23.0 °F 15.8 °F 15.8 °F 74% 30.33 in 10.0 mi South 5.8 mph - N/A   Clear
7:55 PM 21.2 °F 16.4 °F 15.8 °F 80% 30.33 in 10.0 mi South 3.5 mph - N/A   Clear
8:15 PM 23.0 °F 18.4 °F 15.8 °F 74% 30.32 in 10.0 mi SSE 3.5 mph - N/A   Clear
8:35 PM 21.2 °F 16.4 °F 15.8 °F 80% 30.32 in 10.0 mi South 3.5 mph - N/A   Clear
8:55 PM 21.2 °F 16.4 °F 15.8 °F 80% 30.32 in 10.0 mi South 3.5 mph - N/A   Clear
9:15 PM 21.2 °F 14.9 °F 14.0 °F 74% 30.31 in 10.0 mi South 4.6 mph - N/A   Clear
9:35 PM 21.2 °F 14.9 °F 17.6 °F 86% 30.30 in 10.0 mi SSE 4.6 mph - N/A   Clear
9:55 PM 23.0 °F 18.4 °F 17.6 °F 80% 30.30 in 10.0 mi SSE 3.5 mph - N/A   Clear
10:15 PM 21.2 °F - 15.8 °F 80% 30.30 in 10.0 mi Calm Calm - N/A   Clear
10:35 PM 21.2 °F 16.4 °F 15.8 °F 80% 30.29 in 10.0 mi South 3.5 mph - N/A   Clear
10:55 PM 21.2 °F 16.4 °F 15.8 °F 80% 30.28 in 10.0 mi South 3.5 mph - N/A   Clear
11:15 PM 21.2 °F 14.9 °F 15.8 °F 80% 30.29 in 10.0 mi South 4.6 mph - N/A   Clear
11:35 PM 23.0 °F 17.0 °F 17.6 °F 80% 30.27 in 10.0 mi SSE 4.6 mph - N/A   Clear
11:55 PM 23.0 °F 18.4 °F 17.6 °F 80% 30.26 in 10.0 mi SSE 3.5 mph - N/A   Clear